This is the latest recevied weather packets stored in our database for station/object KW4UJ. If no packets are shown the sender has not sent any weather packets the latest 10 day(s).
| Time | Temp. | Humidity | Pressure | Rain* | Wind** | Luminosity | Snow |
|---|---|---|---|---|---|---|---|
| 1777638350 | 12.22° C | 62% | 1015.3 hPa | 0 mm | - | 157 W/m² | - |
| 1777638046 | 11.11° C | 63% | 1015.4 hPa | 0 mm | - | 184 W/m² | - |
| 1777637743 | 10.56° C | 65% | 1015.5 hPa | 0 mm | - | 172 W/m² | - |
| 1777637440 | 11.11° C | 65% | 1015.5 hPa | 0 mm | - | 155 W/m² | - |
| 1777637137 | 10.56° C | 66% | 1015.6 hPa | 0 mm | - | 143 W/m² | - |
| 1777636834 | 10° C | 68% | 1015.4 hPa | 0 mm | - | 130 W/m² | - |
| 1777636529 | 10.56° C | 67% | 1015.5 hPa | 0 mm | - | 119 W/m² | - |
| 1777636226 | 10° C | 69% | 1015.4 hPa | 0 mm | - | 110 W/m² | - |
| 1777635926 | 8.89° C | 72% | 1015.6 hPa | 0 mm | - | 98 W/m² | - |
| 1777635622 | 8.89° C | 74% | 1015.4 hPa | 0 mm | - | 87 W/m² | - |
| 1777635319 | 7.78° C | 77% | 1015.5 hPa | 0 mm | - | 78 W/m² | - |
| 1777635015 | 7.22° C | 80% | 1015.1 hPa | 0 mm | - | 46 W/m² | - |
| 1777634712 | 6.67° C | 83% | 1015.2 hPa | 0 mm | - | 40 W/m² | - |
| 1777634410 | 6.11° C | 87% | 1015.2 hPa | 0 mm | - | 30 W/m² | - |
| 1777634106 | 5.56° C | 87% | 1015.3 hPa | 0 mm | - | 29 W/m² | - |
| 1777633802 | 5.56° C | 87% | 1015.2 hPa | 0 mm | - | 29 W/m² | - |
| 1777633501 | 5.56° C | 87% | 1015.2 hPa | 0 mm | - | 28 W/m² | - |
| 1777633198 | 5.56° C | 87% | 1015.1 hPa | 0 mm | - | 25 W/m² | - |
| 1777632895 | 5.56° C | 87% | 1015 hPa | 0 mm | - | 24 W/m² | - |
| 1777632591 | 5° C | 87% | 1015.1 hPa | 0 mm | - | 20 W/m² | - |
| 1777632288 | 5° C | 86% | 1015.1 hPa | 0 mm | - | 16 W/m² | - |
| 1777631985 | 5° C | 86% | 1015 hPa | 0 mm | - | 14 W/m² | - |
| 1777631683 | 5° C | 86% | 1015.1 hPa | 0 mm | - | 11 W/m² | - |
| 1777631380 | 5.56° C | 86% | 1015.1 hPa | 0 mm | - | 8 W/m² | - |
| 1777631077 | 5.56° C | 86% | 1015 hPa | 0 mm | - | 6 W/m² | - |
* Rain latest hour (hover to see other rain measurements)
** Current wind speed in m/s (hover to see current wind gust speed)